createdAt,value
2023-01-29T00:01:15.881Z,24.15
2023-01-29T00:03:43.660Z,24.83
2023-01-29T00:06:12.854Z,24.42
2023-01-29T00:08:40.667Z,25.63
2023-01-29T00:11:09.979Z,26.48
2023-01-29T00:16:06.294Z,26.17
2023-01-29T00:18:34.070Z,27.55
2023-01-29T00:21:01.874Z,26.23
2023-01-29T00:23:30.980Z,27.02
2023-01-29T00:26:00.952Z,24.88
2023-01-29T00:28:28.675Z,26.52
2023-01-29T00:30:57.196Z,26.92
2023-01-29T00:33:25.032Z,26.77
2023-01-29T00:35:53.294Z,26.07
2023-01-29T00:38:21.022Z,26.92
2023-01-29T00:41:07.808Z,27.90
2023-01-29T00:43:53.042Z,25.95
2023-01-29T00:46:20.950Z,26.00
2023-01-29T00:48:48.718Z,27.30
2023-01-29T00:51:16.483Z,25.95
2023-01-29T00:53:44.245Z,26.20
2023-01-29T00:56:13.353Z,24.85
2023-01-29T00:58:41.123Z,24.23
2023-01-29T01:01:09.017Z,25.75
2023-01-29T01:03:42.034Z,26.25
2023-01-29T01:06:11.757Z,24.98
2023-01-29T01:08:57.218Z,24.33
2023-01-29T01:11:28.760Z,24.90
2023-01-29T01:14:02.018Z,26.42
2023-01-29T01:16:29.831Z,24.13
2023-01-29T01:18:57.557Z,25.67
2023-01-29T01:21:25.397Z,24.42
2023-01-29T01:23:53.560Z,24.05
2023-01-29T01:26:21.340Z,24.70
2023-01-29T01:28:50.466Z,25.27
2023-01-29T01:31:18.744Z,24.60
2023-01-29T01:33:46.530Z,25.90
2023-01-29T01:36:15.755Z,24.85
2023-01-29T01:41:14.888Z,27.42
2023-01-29T01:43:55.561Z,27.80
2023-01-29T01:46:23.647Z,28.00
2023-01-29T01:48:57.067Z,27.70
2023-01-29T01:51:27.272Z,27.48
2023-01-29T01:53:59.141Z,26.92
2023-01-29T01:56:40.647Z,26.90
2023-01-29T01:59:12.980Z,27.25
2023-01-29T02:01:42.771Z,28.88
2023-01-29T02:04:31.949Z,29.25
2023-01-29T02:07:21.271Z,28.73
2023-01-29T02:09:53.883Z,26.83
2023-01-29T02:12:23.128Z,28.65
2023-01-29T02:14:53.100Z,27.80
2023-01-29T02:17:21.502Z,27.50
2023-01-29T02:19:58.408Z,28.10
2023-01-29T02:22:42.049Z,27.33
2023-01-29T02:25:32.892Z,29.38
2023-01-29T02:28:13.273Z,29.90
2023-01-29T02:30:45.957Z,28.10
2023-01-29T02:33:22.939Z,28.88
2023-01-29T02:35:59.652Z,28.27
2023-01-29T02:38:34.920Z,29.48
2023-01-29T02:41:09.695Z,27.73
2023-01-29T02:43:47.278Z,27.27
2023-01-29T02:46:24.134Z,27.00
2023-01-29T02:48:59.380Z,27.90
2023-01-29T02:51:35.303Z,27.77
2023-01-29T02:54:08.604Z,27.95
2023-01-29T02:56:40.327Z,27.52
2023-01-29T02:59:14.362Z,29.65
2023-01-29T03:01:48.680Z,29.13
2023-01-29T03:04:21.344Z,29.60
2023-01-29T03:06:54.518Z,30.35
2023-01-29T03:09:30.059Z,30.00
2023-01-29T03:12:20.030Z,27.55
2023-01-29T03:15:09.543Z,28.15
2023-01-29T03:17:42.193Z,28.38
2023-01-29T03:20:17.643Z,28.15
2023-01-29T03:22:51.487Z,28.52
2023-01-29T03:25:39.570Z,29.15
2023-01-29T03:28:27.048Z,29.52
2023-01-29T03:31:20.149Z,29.02
2023-01-29T03:34:00.700Z,29.35
2023-01-29T03:36:37.968Z,29.48
2023-01-29T03:39:07.149Z,29.42
2023-01-29T03:41:39.587Z,27.75
2023-01-29T03:44:15.787Z,27.95
2023-01-29T03:46:51.502Z,27.70
2023-01-29T03:49:28.263Z,29.73
2023-01-29T03:52:02.531Z,29.00
2023-01-29T03:54:35.104Z,29.17
2023-01-29T03:57:15.014Z,27.65
2023-01-29T03:59:52.475Z,27.95
2023-01-29T04:03:03.274Z,29.65
2023-01-29T04:05:40.924Z,30.30
2023-01-29T04:08:23.777Z,29.63
2023-01-29T04:10:53.971Z,29.17
2023-01-29T04:13:24.300Z,27.52
2023-01-29T04:15:57.643Z,26.85
2023-01-29T04:18:47.456Z,29.05
2023-01-29T04:21:16.395Z,27.38
2023-01-29T04:26:30.527Z,28.88
2023-01-29T04:29:21.558Z,27.38
2023-01-29T04:31:58.420Z,28.88
2023-01-29T04:34:30.549Z,29.35
2023-01-29T04:37:09.112Z,26.77
2023-01-29T04:39:47.474Z,27.45
2023-01-29T04:42:26.913Z,29.58
2023-01-29T04:45:00.460Z,26.30
2023-01-29T04:47:35.327Z,27.98
2023-01-29T04:50:17.659Z,26.55
2023-01-29T04:52:52.233Z,27.65
2023-01-29T04:55:27.365Z,26.77
2023-01-29T04:58:06.438Z,27.15
2023-01-29T05:00:37.102Z,28.20
2023-01-29T05:03:06.202Z,27.38
2023-01-29T05:05:35.499Z,26.10
2023-01-29T05:08:05.761Z,27.75
2023-01-29T05:10:35.266Z,28.42
2023-01-29T05:13:07.490Z,25.98
2023-01-29T05:15:39.348Z,29.23
2023-01-29T05:18:08.904Z,29.25
2023-01-29T05:20:40.886Z,28.55
2023-01-29T05:23:11.783Z,26.25
2023-01-29T05:25:39.553Z,27.20
2023-01-29T05:28:06.934Z,27.08
2023-01-29T05:30:36.671Z,28.17
2023-01-29T05:33:05.364Z,27.63
2023-01-29T05:35:33.955Z,27.08
2023-01-29T05:38:03.128Z,28.17
2023-01-29T05:40:31.004Z,28.33
2023-01-29T05:42:58.727Z,29.65
2023-01-29T05:45:26.533Z,27.10
2023-01-29T05:47:57.298Z,28.77
2023-01-29T05:50:26.190Z,28.20
2023-01-29T05:52:57.616Z,28.65
2023-01-29T05:55:27.747Z,28.02
2023-01-29T05:57:55.520Z,28.10
2023-01-29T06:00:23.601Z,28.23
2023-01-29T06:02:51.422Z,21.35
2023-01-29T06:05:19.255Z,24.50
2023-01-29T06:07:47.288Z,21.23
2023-01-29T06:10:17.272Z,23.52
2023-01-29T06:12:46.916Z,25.13
2023-01-29T06:15:16.334Z,21.63
2023-01-29T06:17:44.093Z,24.08
2023-01-29T06:20:12.916Z,22.23
2023-01-29T06:22:40.666Z,21.33
2023-01-29T06:25:09.590Z,23.70
2023-01-29T06:27:37.407Z,22.63
2023-01-29T06:30:07.692Z,21.27
2023-01-29T06:32:35.554Z,20.55
2023-01-29T06:35:03.495Z,24.75
2023-01-29T06:37:31.273Z,23.45
2023-01-29T06:39:59.035Z,22.30
2023-01-29T06:42:28.015Z,22.02
2023-01-29T06:44:55.962Z,21.42
2023-01-29T06:47:25.429Z,21.90
2023-01-29T06:49:53.156Z,22.42
2023-01-29T06:52:20.894Z,22.83
2023-01-29T06:54:48.673Z,22.10
2023-01-29T06:57:16.461Z,23.63
2023-01-29T06:59:44.203Z,24.23
2023-01-29T07:02:12.051Z,24.05
2023-01-29T07:04:41.622Z,25.30
2023-01-29T07:07:13.114Z,22.73
2023-01-29T07:09:41.747Z,23.08
2023-01-29T07:12:09.625Z,22.58
2023-01-29T07:14:37.722Z,21.25
2023-01-29T07:17:05.489Z,24.20
2023-01-29T07:19:33.201Z,26.42
2023-01-29T07:22:02.457Z,25.92
2023-01-29T07:26:58.310Z,26.65
2023-01-29T07:29:26.035Z,28.55
2023-01-29T07:31:53.923Z,28.70
2023-01-29T07:34:21.897Z,28.50
2023-01-29T07:36:49.655Z,27.08
2023-01-29T07:39:18.797Z,24.95
2023-01-29T07:41:46.554Z,26.90
2023-01-29T07:44:17.546Z,26.05
2023-01-29T07:46:45.510Z,25.17
2023-01-29T07:49:13.417Z,22.42
2023-01-29T07:51:41.445Z,21.67
2023-01-29T07:54:09.421Z,21.42
2023-01-29T07:56:38.564Z,23.63
2023-01-29T07:59:06.354Z,24.83
2023-01-29T08:01:34.147Z,26.00
2023-01-29T08:04:01.857Z,22.42
2023-01-29T08:06:29.604Z,24.25
2023-01-29T08:08:57.484Z,25.42
2023-01-29T08:11:25.260Z,23.17
2023-01-29T08:13:54.429Z,22.35
2023-01-29T08:16:22.291Z,23.13
2023-01-29T08:18:50.371Z,22.58
2023-01-29T08:21:18.292Z,19.77
2023-01-29T08:23:46.062Z,23.15
2023-01-29T08:26:13.813Z,19.40
2023-01-29T08:28:41.534Z,24.02
2023-01-29T08:31:16.196Z,25.25
2023-01-29T08:33:44.269Z,22.00
2023-01-29T08:36:12.036Z,19.83
2023-01-29T08:38:39.856Z,23.48
2023-01-29T08:41:07.880Z,23.58
2023-01-29T08:43:36.885Z,18.63
2023-01-29T08:46:05.438Z,19.98
2023-01-29T08:48:34.949Z,22.25
2023-01-29T08:51:04.408Z,20.25
2023-01-29T08:53:32.809Z,22.67
2023-01-29T08:56:00.553Z,22.87
2023-01-29T08:58:28.370Z,22.30
2023-01-29T09:00:56.207Z,22.65
2023-01-29T09:03:24.000Z,23.75
2023-01-29T09:05:53.088Z,21.20
2023-01-29T09:08:20.823Z,21.42
2023-01-29T09:10:48.533Z,21.75
2023-01-29T09:13:16.306Z,21.55
2023-01-29T09:15:44.146Z,22.90
2023-01-29T09:18:12.055Z,21.67
2023-01-29T09:20:39.817Z,18.23
2023-01-29T09:23:10.561Z,20.17
2023-01-29T09:25:38.593Z,17.48
2023-01-29T09:28:07.547Z,19.95
2023-01-29T09:30:37.672Z,19.65
2023-01-29T09:33:05.972Z,17.73
2023-01-29T09:35:34.826Z,21.00
2023-01-29T09:38:02.622Z,20.75
2023-01-29T09:40:39.461Z,19.55
2023-01-29T09:43:13.250Z,21.48
2023-01-29T09:45:46.739Z,20.92
2023-01-29T09:48:14.871Z,16.83
2023-01-29T09:50:45.951Z,20.88
2023-01-29T09:53:19.912Z,20.02
2023-01-29T09:55:52.336Z,22.10
2023-01-29T09:58:23.947Z,21.48
2023-01-29T10:01:00.986Z,17.35
2023-01-29T10:03:42.924Z,19.40
2023-01-29T10:06:24.579Z,20.02
2023-01-29T10:09:16.061Z,19.23
2023-01-29T10:11:57.700Z,19.08
2023-01-29T10:14:37.795Z,20.63
2023-01-29T10:17:17.342Z,22.27
2023-01-29T10:19:58.592Z,22.20
2023-01-29T10:23:01.053Z,18.75
2023-01-29T10:25:29.114Z,18.90
2023-01-29T10:28:00.724Z,18.42
2023-01-29T10:30:33.182Z,18.10
2023-01-29T10:33:03.758Z,17.17
2023-01-29T10:35:35.816Z,20.70
2023-01-29T10:38:20.179Z,17.77
2023-01-29T10:40:57.043Z,21.00
2023-01-29T10:43:33.991Z,18.75
2023-01-29T10:46:13.670Z,20.17
2023-01-29T10:49:01.350Z,18.42
2023-01-29T10:51:43.997Z,16.45
2023-01-29T10:54:27.232Z,18.83
2023-01-29T10:57:07.909Z,16.10
2023-01-29T10:59:56.889Z,15.57
2023-01-29T11:02:24.731Z,20.17
2023-01-29T11:04:53.156Z,19.95
2023-01-29T11:07:23.445Z,18.13
2023-01-29T11:09:57.377Z,19.67
2023-01-29T11:12:30.681Z,20.05
2023-01-29T11:15:06.327Z,17.10
2023-01-29T11:17:34.166Z,19.25
2023-01-29T11:20:02.045Z,22.08
2023-01-29T11:22:31.284Z,18.58
2023-01-29T11:25:10.939Z,20.45
2023-01-29T11:27:44.425Z,19.40
2023-01-29T11:30:22.671Z,18.63
2023-01-29T11:32:53.814Z,19.55
2023-01-29T11:35:24.093Z,15.45
2023-01-29T11:37:52.211Z,18.45
2023-01-29T11:40:36.116Z,18.80
2023-01-29T11:43:22.244Z,16.75
2023-01-29T11:45:54.012Z,17.63
2023-01-29T11:48:23.396Z,18.55
2023-01-29T11:53:28.793Z,14.45
2023-01-29T11:55:56.916Z,15.27
2023-01-29T11:58:30.199Z,16.77
2023-01-29T12:01:01.114Z,18.48
2023-01-29T12:03:36.246Z,14.10
2023-01-29T12:06:07.345Z,16.88
2023-01-29T12:08:38.610Z,17.65
2023-01-29T12:11:13.149Z,15.23
2023-01-29T12:13:43.277Z,17.60
2023-01-29T12:16:22.793Z,18.25
2023-01-29T12:18:56.089Z,14.20
2023-01-29T12:21:31.419Z,15.98
2023-01-29T12:24:03.183Z,13.02
2023-01-29T12:26:34.773Z,12.55
2023-01-29T12:29:21.496Z,15.27
2023-01-29T12:31:56.223Z,15.65
2023-01-29T12:34:34.320Z,14.90
2023-01-29T12:37:07.801Z,13.55
2023-01-29T12:39:37.357Z,13.80
2023-01-29T12:42:11.350Z,14.00
2023-01-29T12:44:43.688Z,14.40
2023-01-29T12:47:20.334Z,11.13
2023-01-29T12:49:53.148Z,10.43
2023-01-29T12:52:26.030Z,13.50
2023-01-29T12:54:57.246Z,12.40
2023-01-29T12:57:33.466Z,12.75
2023-01-29T13:00:08.996Z,14.27
2023-01-29T13:02:45.244Z,13.07
2023-01-29T13:05:21.750Z,11.05
2023-01-29T13:07:55.561Z,12.80
2023-01-29T13:10:30.711Z,11.50
2023-01-29T13:13:03.851Z,13.05
2023-01-29T13:15:36.322Z,13.65
2023-01-29T13:18:25.098Z,14.10
2023-01-29T13:20:53.595Z,14.40
2023-01-29T13:23:23.235Z,12.83
2023-01-29T13:25:52.807Z,13.10
2023-01-29T13:28:22.942Z,11.25
2023-01-29T13:31:13.548Z,10.10
2023-01-29T13:33:44.964Z,12.82
2023-01-29T13:36:19.352Z,12.23
2023-01-29T13:38:47.338Z,11.48
2023-01-29T13:41:15.978Z,11.07
2023-01-29T13:43:50.626Z,11.60
2023-01-29T13:46:21.451Z,12.35
2023-01-29T13:48:54.509Z,14.90
2023-01-29T13:51:26.713Z,13.73
2023-01-29T13:53:58.195Z,14.48
2023-01-29T13:56:51.616Z,13.75
2023-01-29T13:59:24.813Z,13.40
2023-01-29T14:02:04.482Z,12.07
2023-01-29T14:04:34.144Z,13.55
2023-01-29T14:07:04.063Z,13.75
2023-01-29T14:10:04.615Z,13.73
2023-01-29T14:12:55.461Z,14.63
2023-01-29T14:15:31.490Z,12.65
2023-01-29T14:18:06.076Z,14.38
2023-01-29T14:20:47.056Z,13.90
2023-01-29T14:23:35.902Z,13.57
2023-01-29T14:26:06.159Z,14.02
2023-01-29T14:28:35.813Z,13.07
2023-01-29T14:31:04.993Z,17.27
2023-01-29T14:33:36.998Z,30.90
2023-01-29T14:36:10.322Z,14.55
2023-01-29T14:38:39.776Z,13.20
2023-01-29T14:41:18.187Z,14.23
2023-01-29T14:43:46.086Z,24.67
2023-01-29T14:46:43.296Z,13.68
2023-01-29T14:49:11.511Z,14.30
2023-01-29T14:51:44.438Z,15.32
2023-01-29T14:54:26.318Z,12.45
2023-01-29T14:56:59.640Z,12.77
2023-01-29T14:59:33.080Z,10.48
2023-01-29T15:02:04.179Z,13.05
2023-01-29T15:04:45.526Z,11.40
2023-01-29T15:07:26.599Z,13.18
2023-01-29T15:10:13.522Z,12.02
2023-01-29T15:12:50.765Z,14.25
2023-01-29T15:15:23.458Z,14.10
2023-01-29T15:17:58.366Z,11.80
2023-01-29T15:20:28.834Z,13.30
2023-01-29T15:22:58.445Z,15.73
2023-01-29T15:25:27.500Z,14.52
2023-01-29T15:27:57.783Z,14.43
2023-01-29T15:30:33.482Z,14.65
2023-01-29T15:33:02.829Z,15.30
2023-01-29T15:38:02.615Z,13.55
2023-01-29T15:40:30.668Z,14.77
2023-01-29T15:42:58.865Z,16.63
2023-01-29T15:45:30.991Z,12.63
2023-01-29T15:48:05.993Z,11.95
2023-01-29T15:50:36.791Z,14.50
2023-01-29T15:53:10.370Z,15.93
2023-01-29T15:55:38.226Z,15.00
2023-01-29T15:58:07.706Z,13.52
2023-01-29T16:00:35.643Z,16.60
2023-01-29T16:03:15.060Z,13.60
2023-01-29T16:05:43.220Z,14.98
2023-01-29T16:08:16.035Z,15.95
2023-01-29T16:10:45.115Z,14.88
2023-01-29T16:13:21.097Z,17.27
2023-01-29T16:15:57.915Z,15.52
2023-01-29T16:18:29.853Z,16.80
2023-01-29T16:20:59.362Z,15.77
2023-01-29T16:23:33.258Z,15.95
2023-01-29T16:26:04.418Z,14.57
2023-01-29T16:28:32.491Z,15.43
2023-01-29T16:31:04.154Z,18.67
2023-01-29T16:33:36.255Z,13.80
2023-01-29T16:36:06.146Z,15.57
2023-01-29T16:38:37.065Z,13.75
2023-01-29T16:41:15.257Z,16.27
2023-01-29T16:43:55.637Z,16.15
2023-01-29T16:46:32.789Z,14.10
2023-01-29T16:49:01.272Z,16.75
2023-01-29T16:51:30.753Z,14.70
2023-01-29T16:54:02.377Z,13.65
2023-01-29T16:56:33.183Z,14.63
2023-01-29T16:59:03.648Z,12.95
2023-01-29T17:01:32.019Z,15.32
2023-01-29T17:04:08.861Z,15.77
2023-01-29T17:06:37.322Z,15.55
2023-01-29T17:09:08.096Z,15.80
2023-01-29T17:11:38.669Z,12.63
2023-01-29T17:14:08.256Z,15.23
2023-01-29T17:16:38.456Z,17.48
2023-01-29T17:19:17.808Z,13.18
2023-01-29T17:24:14.621Z,17.10
2023-01-29T17:26:42.796Z,14.15
2023-01-29T17:29:15.490Z,13.77
2023-01-29T17:31:43.497Z,15.43
2023-01-29T17:34:12.663Z,15.20
2023-01-29T17:36:40.450Z,16.02
2023-01-29T17:39:18.204Z,14.27
2023-01-29T17:41:48.233Z,19.73
2023-01-29T17:44:16.290Z,16.23
2023-01-29T17:46:44.453Z,16.02
2023-01-29T17:49:23.431Z,11.38
2023-01-29T17:51:51.501Z,13.32
2023-01-29T17:54:20.696Z,15.40
2023-01-29T17:56:48.739Z,13.52
2023-01-29T17:59:18.481Z,18.42
2023-01-29T18:01:47.545Z,15.55
2023-01-29T18:04:15.789Z,12.20
2023-01-29T18:06:45.369Z,13.60
2023-01-29T18:09:15.142Z,12.07
2023-01-29T18:11:44.563Z,11.95
2023-01-29T18:14:14.009Z,13.07
2023-01-29T18:16:43.437Z,12.63
2023-01-29T18:19:17.355Z,13.52
2023-01-29T18:21:45.252Z,13.35
2023-01-29T18:24:13.027Z,11.65
2023-01-29T18:26:40.841Z,11.85
2023-01-29T18:29:10.017Z,13.70
2023-01-29T18:31:37.867Z,11.52
2023-01-29T18:34:05.838Z,14.55
2023-01-29T18:36:33.626Z,15.75
2023-01-29T18:39:01.451Z,16.30
2023-01-29T18:41:29.244Z,13.23
2023-01-29T18:43:57.107Z,12.68
2023-01-29T18:46:26.341Z,21.77
2023-01-29T18:48:54.159Z,12.95
2023-01-29T18:51:21.953Z,14.32
2023-01-29T18:53:53.013Z,11.02
2023-01-29T18:56:20.949Z,15.98
2023-01-29T18:58:52.018Z,13.93
2023-01-29T19:01:23.595Z,11.65
2023-01-29T19:03:52.830Z,11.83
2023-01-29T19:06:20.674Z,13.95
2023-01-29T19:08:48.630Z,11.93
2023-01-29T19:11:16.604Z,12.77
2023-01-29T19:13:44.391Z,14.88
2023-01-29T19:16:13.486Z,13.40
2023-01-29T19:18:41.345Z,15.18
2023-01-29T19:21:12.402Z,14.02
2023-01-29T19:23:40.600Z,13.02
2023-01-29T19:26:08.417Z,14.10
2023-01-29T19:28:36.468Z,16.60
2023-01-29T19:31:04.794Z,12.50
2023-01-29T19:33:32.642Z,12.43
2023-01-29T19:36:00.882Z,15.32
2023-01-29T19:38:33.333Z,13.82
2023-01-29T19:41:01.334Z,12.38
2023-01-29T19:43:30.749Z,13.60
2023-01-29T19:45:59.493Z,12.40
2023-01-29T19:48:27.520Z,12.70
2023-01-29T19:50:56.800Z,12.02
2023-01-29T19:53:25.275Z,13.05
2023-01-29T19:56:02.195Z,13.67
2023-01-29T19:58:30.444Z,15.73
2023-01-29T20:00:59.279Z,12.27
2023-01-29T20:03:28.157Z,16.08
2023-01-29T20:05:56.233Z,13.15
2023-01-29T20:08:24.837Z,13.27
2023-01-29T20:10:52.644Z,14.68
2023-01-29T20:13:21.798Z,12.32
2023-01-29T20:15:51.671Z,16.80
2023-01-29T20:18:20.115Z,16.25
2023-01-29T20:20:49.602Z,15.47
2023-01-29T20:23:31.703Z,14.30
2023-01-29T20:26:04.634Z,13.93
2023-01-29T20:28:34.483Z,15.55
2023-01-29T20:31:02.520Z,12.90
2023-01-29T20:33:30.608Z,15.10
2023-01-29T20:36:00.341Z,12.13
2023-01-29T20:38:31.544Z,13.30
2023-01-29T20:41:04.021Z,12.70
2023-01-29T20:43:33.874Z,14.95
2023-01-29T20:46:02.061Z,14.88
2023-01-29T20:48:30.659Z,13.70
2023-01-29T20:51:03.637Z,14.60
2023-01-29T20:53:31.425Z,14.60
2023-01-29T20:55:59.242Z,14.30
2023-01-29T20:58:27.286Z,11.45
2023-01-29T21:00:56.394Z,17.75
2023-01-29T21:03:24.164Z,12.52
2023-01-29T21:05:52.318Z,12.15
2023-01-29T21:08:20.141Z,13.15
2023-01-29T21:10:50.341Z,13.05
2023-01-29T21:13:18.088Z,12.00
2023-01-29T21:15:45.930Z,13.27
2023-01-29T21:18:14.995Z,14.35
2023-01-29T21:20:42.740Z,10.65
2023-01-29T21:23:10.610Z,13.27
2023-01-29T21:25:39.607Z,12.93
2023-01-29T21:28:07.483Z,13.48
2023-01-29T21:30:35.515Z,16.77
2023-01-29T21:33:03.331Z,12.90
2023-01-29T21:35:33.084Z,13.77
2023-01-29T21:40:30.454Z,14.10
2023-01-29T21:43:13.244Z,13.32
2023-01-29T21:45:41.639Z,13.02
2023-01-29T21:48:10.248Z,13.20
2023-01-29T21:50:39.874Z,13.38
2023-01-29T21:53:07.812Z,14.40
2023-01-29T21:55:35.632Z,14.23
2023-01-29T21:58:04.202Z,14.48
2023-01-29T22:00:32.069Z,12.80
2023-01-29T22:03:00.004Z,14.07
2023-01-29T22:05:29.112Z,13.52
2023-01-29T22:07:58.269Z,13.23
2023-01-29T22:10:26.193Z,11.07
2023-01-29T22:12:54.070Z,11.80
2023-01-29T22:15:23.705Z,12.43
2023-01-29T22:17:52.127Z,12.65
2023-01-29T22:20:20.591Z,13.20
2023-01-29T22:22:48.473Z,12.90
2023-01-29T22:25:19.947Z,11.25
2023-01-29T22:27:47.848Z,13.25
2023-01-29T22:30:16.188Z,13.60
2023-01-29T22:32:44.181Z,10.57
2023-01-29T22:35:11.961Z,15.02
2023-01-29T22:37:39.735Z,12.00
2023-01-29T22:40:08.654Z,14.63
2023-01-29T22:42:37.759Z,14.65
2023-01-29T22:45:06.238Z,13.82
2023-01-29T22:47:34.101Z,11.03
2023-01-29T22:50:01.889Z,12.93
2023-01-29T22:52:38.581Z,11.60
2023-01-29T22:55:09.234Z,12.10
2023-01-29T22:57:38.372Z,12.32
2023-01-29T23:00:08.098Z,12.43
2023-01-29T23:02:35.858Z,13.93
2023-01-29T23:05:04.219Z,15.68
2023-01-29T23:07:32.004Z,14.48
2023-01-29T23:09:59.893Z,12.65
2023-01-29T23:12:27.663Z,11.63
2023-01-29T23:14:56.739Z,12.77
2023-01-29T23:17:24.508Z,14.25
2023-01-29T23:19:52.278Z,13.63
2023-01-29T23:22:20.063Z,11.13
2023-01-29T23:24:47.821Z,12.55
2023-01-29T23:27:14.673Z,12.05
2023-01-29T23:29:43.097Z,13.30
2023-01-29T23:32:13.518Z,13.43
2023-01-29T23:34:41.330Z,12.65
2023-01-29T23:37:09.147Z,13.70
2023-01-29T23:39:36.861Z,13.48
2023-01-29T23:42:05.235Z,13.77
2023-01-29T23:44:32.987Z,13.10
2023-01-29T23:47:00.794Z,12.32
2023-01-29T23:49:29.948Z,12.40
2023-01-29T23:51:58.207Z,11.52
2023-01-29T23:54:26.226Z,15.30
2023-01-29T23:56:54.037Z,13.85
2023-01-29T23:59:22.014Z,10.73
